Stromness, United Kingdom
Current Conditions -  °F | °C
As of 5:50 PM on Friday 21 Nov 2014 (Local Time) from EGPA Reporting Station
Rain Showers Rain Showers  
Wind Chill: 50°   Ceiling: 4000
Heat Index: 50°   Visibility: 6mi
Dew Point: 45°   Wind: 20mph
Humidity: 82%   Direction: 130°SE
Pressure: 30"   Gusts: NA
Location:  58.96°N, 3.3°W
Report Text: EGPA 211750Z 13017KT 9999 VCSH SCT014 BKN040 10/07 Q1016
Loading
Personal Weather Stations






























Interactive Weather Map New forecast layout! Learn more

10-Day Weather Forecast

Advertisements
Track Severe Weather on mobile